sensor_id;sensor_type;location;lat;lon;timestamp;pressure;altitude;pressure_sealevel;temperature;humidity
30875;BME280;17581;43.222;27.924;2023-04-07T00:00:51;100546.38;;;9.14;50.57
30875;BME280;17581;43.222;27.924;2023-04-07T00:03:16;100540.25;;;9.12;50.39
30875;BME280;17581;43.222;27.924;2023-04-07T00:05:42;100548.06;;;9.15;50.47
30875;BME280;17581;43.222;27.924;2023-04-07T00:08:07;100556.88;;;9.17;50.70
30875;BME280;17581;43.222;27.924;2023-04-07T00:10:33;100549.66;;;9.17;50.60
30875;BME280;17581;43.222;27.924;2023-04-07T00:12:59;100550.97;;;9.12;50.53
30875;BME280;17581;43.222;27.924;2023-04-07T00:15:25;100542.94;;;9.12;50.57
30875;BME280;17581;43.222;27.924;2023-04-07T00:17:50;100547.34;;;9.13;50.05
30875;BME280;17581;43.222;27.924;2023-04-07T00:20:16;100543.06;;;9.10;50.56
30875;BME280;17581;43.222;27.924;2023-04-07T00:22:41;100549.41;;;9.20;50.03
30875;BME280;17581;43.222;27.924;2023-04-07T00:25:07;100551.75;;;9.25;49.53
30875;BME280;17581;43.222;27.924;2023-04-07T00:27:33;100543.22;;;9.20;49.53
30875;BME280;17581;43.222;27.924;2023-04-07T00:29:58;100549.16;;;9.23;49.50
30875;BME280;17581;43.222;27.924;2023-04-07T00:32:24;100543.06;;;9.21;49.43
30875;BME280;17581;43.222;27.924;2023-04-07T00:34:49;100544.91;;;9.21;49.24
30875;BME280;17581;43.222;27.924;2023-04-07T00:37:15;100541.03;;;9.25;48.56
30875;BME280;17581;43.222;27.924;2023-04-07T00:39:40;100540.06;;;9.26;48.77
30875;BME280;17581;43.222;27.924;2023-04-07T00:42:06;100537.25;;;9.27;48.87
30875;BME280;17581;43.222;27.924;2023-04-07T00:44:32;100549.56;;;9.30;48.82
30875;BME280;17581;43.222;27.924;2023-04-07T00:46:58;100538.81;;;9.30;47.82
30875;BME280;17581;43.222;27.924;2023-04-07T00:49:24;100542.25;;;9.32;47.90
30875;BME280;17581;43.222;27.924;2023-04-07T00:51:50;100543.34;;;9.29;47.85
30875;BME280;17581;43.222;27.924;2023-04-07T00:54:17;100552.38;;;9.28;47.98
30875;BME280;17581;43.222;27.924;2023-04-07T00:56:42;100547.47;;;9.22;48.05
30875;BME280;17581;43.222;27.924;2023-04-07T00:59:08;100553.47;;;9.26;48.29
30875;BME280;17581;43.222;27.924;2023-04-07T01:04:34;100556.97;;;9.15;48.60
30875;BME280;17581;43.222;27.924;2023-04-07T01:07:04;100556.09;;;9.15;48.62
30875;BME280;17581;43.222;27.924;2023-04-07T01:09:42;100556.56;;;9.09;48.89
30875;BME280;17581;43.222;27.924;2023-04-07T01:12:31;100542.66;;;9.04;49.06
30875;BME280;17581;43.222;27.924;2023-04-07T01:15:06;100552.94;;;9.10;49.17
30875;BME280;17581;43.222;27.924;2023-04-07T01:17:34;100546.84;;;9.08;48.89
30875;BME280;17581;43.222;27.924;2023-04-07T01:20:01;100543.06;;;9.10;49.11
30875;BME280;17581;43.222;27.924;2023-04-07T01:22:42;100539.78;;;9.18;48.87
30875;BME280;17581;43.222;27.924;2023-04-07T01:31:03;100550.28;;;9.21;48.63
30875;BME280;17581;43.222;27.924;2023-04-07T01:33:31;100545.19;;;9.29;48.35
30875;BME280;17581;43.222;27.924;2023-04-07T01:35:59;100554.94;;;9.30;48.40
30875;BME280;17581;43.222;27.924;2023-04-07T01:38:27;100549.94;;;9.25;48.81
30875;BME280;17581;43.222;27.924;2023-04-07T01:40:54;100552.25;;;9.30;48.54
30875;BME280;17581;43.222;27.924;2023-04-07T01:43:21;100540.25;;;9.12;48.87
30875;BME280;17581;43.222;27.924;2023-04-07T01:45:48;100548.34;;;9.23;48.02
30875;BME280;17581;43.222;27.924;2023-04-07T01:48:15;100542.97;;;9.23;47.96
30875;BME280;17581;43.222;27.924;2023-04-07T01:50:42;100538.69;;;9.20;48.15
30875;BME280;17581;43.222;27.924;2023-04-07T01:53:07;100538.69;;;9.20;47.66
30875;BME280;17581;43.222;27.924;2023-04-07T01:55:33;100546.50;;;9.23;47.78
30875;BME280;17581;43.222;27.924;2023-04-07T01:58:04;100547.25;;;9.25;47.37
30875;BME280;17581;43.222;27.924;2023-04-07T02:00:30;100538.56;;;9.22;47.68
30875;BME280;17581;43.222;27.924;2023-04-07T02:03:00;100549.44;;;9.32;47.22
30875;BME280;17581;43.222;27.924;2023-04-07T02:05:29;100549.09;;;9.36;47.00
30875;BME280;17581;43.222;27.924;2023-04-07T02:07:59;100547.63;;;9.32;46.97
30875;BME280;17581;43.222;27.924;2023-04-07T02:10:27;100541.16;;;9.35;46.86
30875;BME280;17581;43.222;27.924;2023-04-07T02:12:54;100544.94;;;9.32;46.63
30875;BME280;17581;43.222;27.924;2023-04-07T02:15:21;100535.88;;;9.22;46.92
30875;BME280;17581;43.222;27.924;2023-04-07T02:17:50;100554.19;;;9.28;46.86
30875;BME280;17581;43.222;27.924;2023-04-07T02:20:17;100550.66;;;9.27;46.81
30875;BME280;17581;43.222;27.924;2023-04-07T02:22:42;100532.47;;;9.20;46.65
30875;BME280;17581;43.222;27.924;2023-04-07T02:25:40;100556.88;;;9.28;46.82
30875;BME280;17581;43.222;27.924;2023-04-07T02:28:06;100558.59;;;9.29;47.29
30875;BME280;17581;43.222;27.924;2023-04-07T02:30:32;100548.09;;;9.26;47.40
30875;BME280;17581;43.222;27.924;2023-04-07T02:32:57;100558.13;;;9.35;46.56
30875;BME280;17581;43.222;27.924;2023-04-07T02:35:23;100564.72;;;9.42;47.09
30875;BME280;17581;43.222;27.924;2023-04-07T02:37:49;100561.22;;;9.53;46.93
30875;BME280;17581;43.222;27.924;2023-04-07T02:40:15;100554.34;;;9.49;46.68
30875;BME280;17581;43.222;27.924;2023-04-07T02:42:40;100563.88;;;9.42;46.56
30875;BME280;17581;43.222;27.924;2023-04-07T02:45:07;100569.38;;;9.51;46.52
30875;BME280;17581;43.222;27.924;2023-04-07T02:47:33;100569.09;;;9.32;46.68
30875;BME280;17581;43.222;27.924;2023-04-07T02:49:59;100568.97;;;9.34;46.94
30875;BME280;17581;43.222;27.924;2023-04-07T02:52:25;100569.72;;;9.36;46.67
30875;BME280;17581;43.222;27.924;2023-04-07T02:54:50;100575.44;;;9.42;46.83
30875;BME280;17581;43.222;27.924;2023-04-07T02:57:16;100583.78;;;9.50;46.79
30875;BME280;17581;43.222;27.924;2023-04-07T02:59:42;100584.03;;;9.47;46.70
30875;BME280;17581;43.222;27.924;2023-04-07T03:02:07;100578.41;;;9.50;46.83
30875;BME280;17581;43.222;27.924;2023-04-07T03:04:33;100579.63;;;9.57;46.81
30875;BME280;17581;43.222;27.924;2023-04-07T03:06:58;100574.78;;;9.62;46.99
30875;BME280;17581;43.222;27.924;2023-04-07T03:09:24;100578.66;;;9.69;46.90
30875;BME280;17581;43.222;27.924;2023-04-07T03:11:50;100585.03;;;9.79;46.66
30875;BME280;17581;43.222;27.924;2023-04-07T03:14:16;100578.41;;;9.72;46.50
30875;BME280;17581;43.222;27.924;2023-04-07T03:16:41;100580.63;;;9.67;46.69
30875;BME280;17581;43.222;27.924;2023-04-07T03:19:07;100594.28;;;9.53;47.10
30875;BME280;17581;43.222;27.924;2023-04-07T03:21:34;100592.56;;;9.63;46.62
30875;BME280;17581;43.222;27.924;2023-04-07T03:24:00;100589.06;;;9.63;46.98
30875;BME280;17581;43.222;27.924;2023-04-07T03:26:25;100580.63;;;9.67;46.31
30875;BME280;17581;43.222;27.924;2023-04-07T03:28:51;100586.84;;;9.57;46.34
30875;BME280;17581;43.222;27.924;2023-04-07T03:31:17;100593.75;;;9.37;46.85
30875;BME280;17581;43.222;27.924;2023-04-07T03:33:42;100595.22;;;9.41;46.84
30875;BME280;17581;43.222;27.924;2023-04-07T03:36:08;100593.75;;;9.37;46.16
30875;BME280;17581;43.222;27.924;2023-04-07T03:38:33;100593.19;;;9.21;46.72
30875;BME280;17581;43.222;27.924;2023-04-07T03:40:59;100612.22;;;9.18;46.86
30875;BME280;17581;43.222;27.924;2023-04-07T03:43:24;100607.53;;;9.09;46.79
30875;BME280;17581;43.222;27.924;2023-04-07T03:45:52;100615.13;;;9.15;46.86
30875;BME280;17581;43.222;27.924;2023-04-07T03:48:17;100615.81;;;9.06;47.17
30875;BME280;17581;43.222;27.924;2023-04-07T03:50:44;100614.00;;;9.06;46.88
30875;BME280;17581;43.222;27.924;2023-04-07T03:53:10;100609.50;;;9.07;46.63
30875;BME280;17581;43.222;27.924;2023-04-07T03:55:36;100620.97;;;9.09;46.94
30875;BME280;17581;43.222;27.924;2023-04-07T03:58:02;100616.19;;;9.01;46.86
30875;BME280;17581;43.222;27.924;2023-04-07T04:00:27;100621.44;;;9.03;47.14
30875;BME280;17581;43.222;27.924;2023-04-07T04:02:53;100624.09;;;9.03;47.06
30875;BME280;17581;43.222;27.924;2023-04-07T04:05:18;100635.59;;;9.05;46.55
30875;BME280;17581;43.222;27.924;2023-04-07T04:07:43;100615.06;;;8.93;47.11
30875;BME280;17581;43.222;27.924;2023-04-07T04:10:09;100621.31;;;9.04;46.74
30875;BME280;17581;43.222;27.924;2023-04-07T04:12:35;100630.13;;;9.17;46.67
30875;BME280;17581;43.222;27.924;2023-04-07T04:15:00;100629.31;;;9.17;46.52
30875;BME280;17581;43.222;27.924;2023-04-07T04:17:26;100627.22;;;9.20;46.38
30875;BME280;17581;43.222;27.924;2023-04-07T04:19:51;100645.94;;;9.33;46.63
30875;BME280;17581;43.222;27.924;2023-04-07T04:22:18;100653.81;;;9.47;46.28
30875;BME280;17581;43.222;27.924;2023-04-07T04:24:43;100657.00;;;9.52;46.48
30875;BME280;17581;43.222;27.924;2023-04-07T04:27:09;100644.28;;;9.54;46.40
30875;BME280;17581;43.222;27.924;2023-04-07T04:29:34;100644.34;;;9.65;45.77
30875;BME280;17581;43.222;27.924;2023-04-07T04:32:01;100649.81;;;9.64;45.09
30875;BME280;17581;43.222;27.924;2023-04-07T04:34:26;100655.91;;;9.55;45.58
30875;BME280;17581;43.222;27.924;2023-04-07T04:36:51;100659.22;;;9.58;45.94
30875;BME280;17581;43.222;27.924;2023-04-07T04:39:17;100654.00;;;9.68;45.88
30875;BME280;17581;43.222;27.924;2023-04-07T04:41:43;100658.28;;;9.81;45.34
30875;BME280;17581;43.222;27.924;2023-04-07T04:44:09;100657.31;;;9.71;45.22
30875;BME280;17581;43.222;27.924;2023-04-07T04:46:34;100660.59;;;9.75;45.29
30875;BME280;17581;43.222;27.924;2023-04-07T04:49:00;100653.84;;;9.69;45.31
30875;BME280;17581;43.222;27.924;2023-04-07T04:51:25;100661.09;;;9.69;45.06
30875;BME280;17581;43.222;27.924;2023-04-07T04:53:51;100661.69;;;9.72;45.29
30875;BME280;17581;43.222;27.924;2023-04-07T04:56:17;100671.69;;;9.70;45.29
30875;BME280;17581;43.222;27.924;2023-04-07T04:58:42;100660.72;;;9.73;45.38
30875;BME280;17581;43.222;27.924;2023-04-07T05:01:13;100667.56;;;9.77;45.25
30875;BME280;17581;43.222;27.924;2023-04-07T05:03:39;100669.53;;;9.87;44.33
30875;BME280;17581;43.222;27.924;2023-04-07T05:06:05;100682.09;;;9.86;45.08
30875;BME280;17581;43.222;27.924;2023-04-07T05:08:30;100672.00;;;9.90;44.63
30875;BME280;17581;43.222;27.924;2023-04-07T05:10:56;100675.88;;;9.85;44.98
30875;BME280;17581;43.222;27.924;2023-04-07T05:13:21;100679.09;;;9.91;44.45
30875;BME280;17581;43.222;27.924;2023-04-07T05:15:47;100666.13;;;9.96;44.53
30875;BME280;17581;43.222;27.924;2023-04-07T05:18:12;100673.97;;;10.10;44.27
30875;BME280;17581;43.222;27.924;2023-04-07T05:20:38;100670.53;;;10.08;43.77
30875;BME280;17581;43.222;27.924;2023-04-07T05:23:04;100673.47;;;10.05;44.08
30875;BME280;17581;43.222;27.924;2023-04-07T05:25:29;100681.72;;;10.14;43.98
30875;BME280;17581;43.222;27.924;2023-04-07T05:30:21;100681.59;;;10.38;43.59
30875;BME280;17581;43.222;27.924;2023-04-07T05:32:46;100676.69;;;10.43;43.26
30875;BME280;17581;43.222;27.924;2023-04-07T05:35:12;100693.22;;;10.61;43.43
30875;BME280;17581;43.222;27.924;2023-04-07T05:37:38;100692.56;;;10.68;42.90
30875;BME280;17581;43.222;27.924;2023-04-07T05:40:03;100703.56;;;10.76;43.05
30875;BME280;17581;43.222;27.924;2023-04-07T05:42:30;100687.66;;;10.84;42.85
30875;BME280;17581;43.222;27.924;2023-04-07T05:44:55;100697.22;;;10.88;42.44
30875;BME280;17581;43.222;27.924;2023-04-07T05:47:21;100681.88;;;10.89;41.99
30875;BME280;17581;43.222;27.924;2023-04-07T05:49:46;100689.34;;;10.97;42.33
30875;BME280;17581;43.222;27.924;2023-04-07T05:52:12;100693.59;;;11.10;42.33
30875;BME280;17581;43.222;27.924;2023-04-07T05:54:38;100682.72;;;11.12;41.56
30875;BME280;17581;43.222;27.924;2023-04-07T05:57:07;100696.88;;;11.25;41.82
30875;BME280;17581;43.222;27.924;2023-04-07T05:59:35;100701.84;;;11.29;40.89
30875;BME280;17581;43.222;27.924;2023-04-07T06:02:02;100696.88;;;11.25;40.69
30875;BME280;17581;43.222;27.924;2023-04-07T06:04:28;100699.22;;;11.18;40.95
30875;BME280;17581;43.222;27.924;2023-04-07T06:06:53;100699.88;;;11.31;41.07
30875;BME280;17581;43.222;27.924;2023-04-07T06:09:22;100707.84;;;11.33;41.03
30875;BME280;17581;43.222;27.924;2023-04-07T06:11:48;100705.16;;;11.33;40.39
30875;BME280;17581;43.222;27.924;2023-04-07T06:14:13;100713.34;;;11.31;40.65
30875;BME280;17581;43.222;27.924;2023-04-07T06:16:39;100711.03;;;11.27;40.64
30875;BME280;17581;43.222;27.924;2023-04-07T06:19:05;100713.22;;;11.33;40.34
30875;BME280;17581;43.222;27.924;2023-04-07T06:21:32;100717.22;;;11.07;40.70
30875;BME280;17581;43.222;27.924;2023-04-07T06:23:57;100722.31;;;11.21;41.01
30875;BME280;17581;43.222;27.924;2023-04-07T06:26:23;100714.47;;;11.29;40.38
30875;BME280;17581;43.222;27.924;2023-04-07T06:28:48;100723.44;;;11.50;40.80
30875;BME280;17581;43.222;27.924;2023-04-07T06:31:14;100706.09;;;11.43;40.40
30875;BME280;17581;43.222;27.924;2023-04-07T06:33:39;100724.38;;;11.60;40.30
30875;BME280;17581;43.222;27.924;2023-04-07T06:36:05;100730.97;;;11.67;39.90
30875;BME280;17581;43.222;27.924;2023-04-07T06:38:31;100724.72;;;11.67;39.72
30875;BME280;17581;43.222;27.924;2023-04-07T06:40:56;100721.22;;;11.87;40.60
30875;BME280;17581;43.222;27.924;2023-04-07T06:43:22;100728.13;;;12.00;40.00
30875;BME280;17581;43.222;27.924;2023-04-07T06:45:47;100732.22;;;12.16;39.45
30875;BME280;17581;43.222;27.924;2023-04-07T06:48:13;100728.47;;;12.07;39.38
30875;BME280;17581;43.222;27.924;2023-04-07T06:50:38;100726.19;;;12.33;39.95
30875;BME280;17581;43.222;27.924;2023-04-07T06:53:04;100734.06;;;12.45;39.09
30875;BME280;17581;43.222;27.924;2023-04-07T06:55:30;100718.75;;;12.46;38.75
30875;BME280;17581;43.222;27.924;2023-04-07T06:57:55;100721.06;;;12.60;39.04
30875;BME280;17581;43.222;27.924;2023-04-07T07:00:21;100714.31;;;12.75;39.02
30875;BME280;17581;43.222;27.924;2023-04-07T07:02:50;100721.19;;;12.89;38.54
30875;BME280;17581;43.222;27.924;2023-04-07T07:05:15;100733.19;;;13.05;37.68
30875;BME280;17581;43.222;27.924;2023-04-07T07:07:41;100735.38;;;13.12;37.62
30875;BME280;17581;43.222;27.924;2023-04-07T07:10:08;100740.78;;;13.12;37.19
30875;BME280;17581;43.222;27.924;2023-04-07T07:12:34;100744.34;;;13.22;37.46
30875;BME280;17581;43.222;27.924;2023-04-07T07:15:00;100744.63;;;13.19;36.80
30875;BME280;17581;43.222;27.924;2023-04-07T07:17:25;100744.09;;;13.34;37.02
30875;BME280;17581;43.222;27.924;2023-04-07T07:19:51;100737.84;;;13.43;36.94
30875;BME280;17581;43.222;27.924;2023-04-07T07:22:16;100741.41;;;13.44;35.85
30875;BME280;17581;43.222;27.924;2023-04-07T07:24:41;100751.50;;;13.42;35.80
30875;BME280;17581;43.222;27.924;2023-04-07T07:27:07;100740.69;;;13.42;35.79
30875;BME280;17581;43.222;27.924;2023-04-07T07:29:32;100749.50;;;13.44;35.78
30875;BME280;17581;43.222;27.924;2023-04-07T07:31:58;100752.06;;;13.36;35.49
30875;BME280;17581;43.222;27.924;2023-04-07T07:34:23;100746.06;;;13.23;35.83
30875;BME280;17581;43.222;27.924;2023-04-07T07:36:49;100753.94;;;13.05;35.84
30875;BME280;17581;43.222;27.924;2023-04-07T07:39:14;100760.44;;;12.93;35.94
30875;BME280;17581;43.222;27.924;2023-04-07T07:41:40;100744.81;;;12.96;36.42
30875;BME280;17581;43.222;27.924;2023-04-07T07:44:06;100760.22;;;13.15;36.22
30875;BME280;17581;43.222;27.924;2023-04-07T07:46:31;100762.53;;;13.20;35.42
30875;BME280;17581;43.222;27.924;2023-04-07T07:48:57;100731.31;;;13.06;35.84
30875;BME280;17581;43.222;27.924;2023-04-07T07:51:22;100759.16;;;13.37;35.88
30875;BME280;17581;43.222;27.924;2023-04-07T07:53:47;100757.59;;;13.44;36.08
30875;BME280;17581;43.222;27.924;2023-04-07T07:56:13;100768.28;;;13.55;35.89
30875;BME280;17581;43.222;27.924;2023-04-07T07:58:38;100745.91;;;13.34;35.57
30875;BME280;17581;43.222;27.924;2023-04-07T08:01:04;100756.63;;;13.45;34.97
30875;BME280;17581;43.222;27.924;2023-04-07T08:03:29;100753.22;;;13.62;34.98
30875;BME280;17581;43.222;27.924;2023-04-07T08:05:56;100759.59;;;13.61;34.91
30875;BME280;17581;43.222;27.924;2023-04-07T08:08:21;100763.75;;;13.84;34.56
30875;BME280;17581;43.222;27.924;2023-04-07T08:10:46;100763.03;;;13.63;34.71
30875;BME280;17581;43.222;27.924;2023-04-07T08:13:13;100762.63;;;13.77;34.93
30875;BME280;17581;43.222;27.924;2023-04-07T08:15:38;100756.63;;;14.02;34.57
30875;BME280;17581;43.222;27.924;2023-04-07T08:18:04;100762.03;;;14.12;33.91
30875;BME280;17581;43.222;27.924;2023-04-07T08:20:30;100768.84;;;14.26;33.95
30875;BME280;17581;43.222;27.924;2023-04-07T08:22:56;100765.16;;;14.17;33.75
30875;BME280;17581;43.222;27.924;2023-04-07T08:25:22;100767.28;;;14.23;33.49
30875;BME280;17581;43.222;27.924;2023-04-07T08:27:48;100764.28;;;14.16;33.99
30875;BME280;17581;43.222;27.924;2023-04-07T08:30:13;100759.31;;;14.22;33.94
30875;BME280;17581;43.222;27.924;2023-04-07T08:32:41;100754.31;;;14.46;33.18
30875;BME280;17581;43.222;27.924;2023-04-07T08:35:07;100760.03;;;14.43;33.54
30875;BME280;17581;43.222;27.924;2023-04-07T08:37:33;100764.81;;;14.58;32.66
30875;BME280;17581;43.222;27.924;2023-04-07T08:40:00;100766.50;;;14.69;33.04
30875;BME280;17581;43.222;27.924;2023-04-07T08:42:30;100765.00;;;14.84;32.83
30875;BME280;17581;43.222;27.924;2023-04-07T08:44:57;100765.19;;;15.10;32.74
30875;BME280;17581;43.222;27.924;2023-04-07T08:47:27;100766.97;;;14.92;32.42
30875;BME280;17581;43.222;27.924;2023-04-07T08:49:56;100769.53;;;14.93;33.01
30875;BME280;17581;43.222;27.924;2023-04-07T08:52:32;100763.53;;;14.90;32.26
30875;BME280;17581;43.222;27.924;2023-04-07T08:54:59;100774.97;;;14.84;32.33
30875;BME280;17581;43.222;27.924;2023-04-07T08:57:29;100781.88;;;14.68;32.26
30875;BME280;17581;43.222;27.924;2023-04-07T08:59:57;100788.09;;;14.88;32.36
30875;BME280;17581;43.222;27.924;2023-04-07T09:02:25;100782.06;;;14.94;32.27
30875;BME280;17581;43.222;27.924;2023-04-07T09:04:51;100784.88;;;15.02;32.37
30875;BME280;17581;43.222;27.924;2023-04-07T09:07:16;100797.19;;;14.87;32.48
30875;BME280;17581;43.222;27.924;2023-04-07T09:09:41;100791.53;;;14.71;32.61
30875;BME280;17581;43.222;27.924;2023-04-07T09:12:07;100798.13;;;14.59;32.63
30875;BME280;17581;43.222;27.924;2023-04-07T09:14:32;100789.66;;;14.35;33.16
30875;BME280;17581;43.222;27.924;2023-04-07T09:16:58;100796.06;;;14.34;32.98
30875;BME280;17581;43.222;27.924;2023-04-07T09:19:26;100792.22;;;14.46;33.39
30875;BME280;17581;43.222;27.924;2023-04-07T09:21:52;100798.88;;;14.61;33.04
30875;BME280;17581;43.222;27.924;2023-04-07T09:24:25;100806.81;;;14.72;32.87
30875;BME280;17581;43.222;27.924;2023-04-07T09:27:10;100798.25;;;14.77;32.93
30875;BME280;17581;43.222;27.924;2023-04-07T09:29:36;100802.50;;;14.79;32.94
30875;BME280;17581;43.222;27.924;2023-04-07T09:32:02;100786.75;;;14.92;33.15
30875;BME280;17581;43.222;27.924;2023-04-07T09:34:30;100808.56;;;15.00;33.06
30875;BME280;17581;43.222;27.924;2023-04-07T09:36:57;100797.34;;;15.22;32.76
30875;BME280;17581;43.222;27.924;2023-04-07T09:39:23;100799.50;;;15.19;32.60
30875;BME280;17581;43.222;27.924;2023-04-07T09:41:49;100807.31;;;15.22;33.03
30875;BME280;17581;43.222;27.924;2023-04-07T09:44:17;100805.34;;;15.14;33.17
30875;BME280;17581;43.222;27.924;2023-04-07T09:46:56;100809.88;;;15.23;32.88
30875;BME280;17581;43.222;27.924;2023-04-07T09:49:23;100809.34;;;15.47;33.23
30875;BME280;17581;43.222;27.924;2023-04-07T09:52:00;100811.59;;;15.52;32.59
30875;BME280;17581;43.222;27.924;2023-04-07T09:54:35;100796.44;;;15.32;33.03
30875;BME280;17581;43.222;27.924;2023-04-07T09:57:05;100813.59;;;15.22;33.12
30875;BME280;17581;43.222;27.924;2023-04-07T09:59:33;100799.59;;;15.27;33.02
30875;BME280;17581;43.222;27.924;2023-04-07T10:02:00;100810.34;;;15.46;33.01
30875;BME280;17581;43.222;27.924;2023-04-07T10:04:26;100805.13;;;15.62;32.75
30875;BME280;17581;43.222;27.924;2023-04-07T10:06:54;100799.78;;;15.53;33.40
30875;BME280;17581;43.222;27.924;2023-04-07T10:09:23;100791.88;;;15.59;33.08
30875;BME280;17581;43.222;27.924;2023-04-07T10:11:50;100800.97;;;15.86;33.05
30875;BME280;17581;43.222;27.924;2023-04-07T10:14:17;100801.66;;;16.05;33.09
30875;BME280;17581;43.222;27.924;2023-04-07T10:16:45;100807.00;;;16.32;32.91
30875;BME280;17581;43.222;27.924;2023-04-07T10:19:12;100799.69;;;16.15;32.69
30875;BME280;17581;43.222;27.924;2023-04-07T10:21:42;100819.78;;;16.22;32.69
30875;BME280;17581;43.222;27.924;2023-04-07T10:24:15;100812.16;;;16.44;32.67
30875;BME280;17581;43.222;27.924;2023-04-07T10:26:50;100810.59;;;16.59;32.59
30875;BME280;17581;43.222;27.924;2023-04-07T10:29:18;100795.88;;;16.44;32.08
30875;BME280;17581;43.222;27.924;2023-04-07T10:31:44;100818.66;;;16.51;32.32
30875;BME280;17581;43.222;27.924;2023-04-07T10:34:10;100801.13;;;16.63;32.38
30875;BME280;17581;43.222;27.924;2023-04-07T10:37:10;100812.59;;;16.74;32.24
30875;BME280;17581;43.222;27.924;2023-04-07T10:39:37;100800.50;;;16.69;32.01
30875;BME280;17581;43.222;27.924;2023-04-07T10:42:03;100807.63;;;16.70;32.00
30875;BME280;17581;43.222;27.924;2023-04-07T10:47:04;100808.69;;;16.77;32.29
30875;BME280;17581;43.222;27.924;2023-04-07T10:49:32;100815.44;;;16.73;32.38
30875;BME280;17581;43.222;27.924;2023-04-07T10:54:36;100800.50;;;16.69;32.23
30875;BME280;17581;43.222;27.924;2023-04-07T10:59:30;100813.00;;;16.62;32.22
30875;BME280;17581;43.222;27.924;2023-04-07T11:04:44;100814.56;;;16.90;32.41
30875;BME280;17581;43.222;27.924;2023-04-07T11:07:12;100805.81;;;16.78;32.21
30875;BME280;17581;43.222;27.924;2023-04-07T11:09:39;100816.81;;;16.69;32.50
30875;BME280;17581;43.222;27.924;2023-04-07T11:12:05;100809.28;;;16.63;32.01
30875;BME280;17581;43.222;27.924;2023-04-07T11:14:32;100807.13;;;16.66;32.82
30875;BME280;17581;43.222;27.924;2023-04-07T11:16:59;100805.28;;;16.75;32.41
30875;BME280;17581;43.222;27.924;2023-04-07T11:19:27;100808.88;;;16.58;32.03
30875;BME280;17581;43.222;27.924;2023-04-07T11:22:18;100815.56;;;16.46;32.34
30875;BME280;17581;43.222;27.924;2023-04-07T11:24:45;100802.84;;;16.46;32.72
30875;BME280;17581;43.222;27.924;2023-04-07T11:27:14;100806.34;;;16.56;32.08
30875;BME280;17581;43.222;27.924;2023-04-07T11:29:40;100800.09;;;16.64;32.08
30875;BME280;17581;43.222;27.924;2023-04-07T11:32:06;100799.53;;;16.34;32.34
30875;BME280;17581;43.222;27.924;2023-04-07T11:34:33;100812.94;;;16.54;32.36
30875;BME280;17581;43.222;27.924;2023-04-07T11:37:21;100806.94;;;16.68;32.59
30875;BME280;17581;43.222;27.924;2023-04-07T11:39:52;100801.13;;;16.63;32.12
30875;BME280;17581;43.222;27.924;2023-04-07T11:42:37;100806.97;;;16.76;32.48
30875;BME280;17581;43.222;27.924;2023-04-07T11:45:17;100804.72;;;16.97;31.82
30875;BME280;17581;43.222;27.924;2023-04-07T11:47:43;100793.53;;;17.00;31.52
30875;BME280;17581;43.222;27.924;2023-04-07T11:50:09;100803.13;;;17.12;31.75
30875;BME280;17581;43.222;27.924;2023-04-07T11:52:46;100802.00;;;16.97;31.76
30875;BME280;17581;43.222;27.924;2023-04-07T11:55:22;100791.53;;;17.02;32.32
30875;BME280;17581;43.222;27.924;2023-04-07T11:57:49;100798.03;;;17.09;32.04
30875;BME280;17581;43.222;27.924;2023-04-07T12:00:18;100802.84;;;17.23;31.79
30875;BME280;17581;43.222;27.924;2023-04-07T12:02:44;100798.06;;;16.92;32.03
30875;BME280;17581;43.222;27.924;2023-04-07T12:05:10;100802.47;;;17.18;32.01
30875;BME280;17581;43.222;27.924;2023-04-07T12:07:37;100807.59;;;17.21;32.02
30875;BME280;17581;43.222;27.924;2023-04-07T12:10:23;100810.91;;;17.49;31.90
30875;BME280;17581;43.222;27.924;2023-04-07T12:12:51;100810.00;;;17.32;31.48
30875;BME280;17581;43.222;27.924;2023-04-07T12:15:17;100798.53;;;17.13;31.81
30875;BME280;17581;43.222;27.924;2023-04-07T12:17:44;100800.47;;;16.95;31.99
30875;BME280;17581;43.222;27.924;2023-04-07T12:20:14;100804.47;;;16.82;32.62
30875;BME280;17581;43.222;27.924;2023-04-07T12:22:40;100802.94;;;16.80;33.10
30875;BME280;17581;43.222;27.924;2023-04-07T12:25:06;100801.28;;;16.44;32.75
30875;BME280;17581;43.222;27.924;2023-04-07T12:27:32;100779.75;;;16.24;33.47
30875;BME280;17581;43.222;27.924;2023-04-07T12:29:57;100789.66;;;16.08;33.63
30875;BME280;17581;43.222;27.924;2023-04-07T12:32:23;100799.66;;;16.33;33.65
30875;BME280;17581;43.222;27.924;2023-04-07T12:34:48;100795.69;;;16.19;33.91
30875;BME280;17581;43.222;27.924;2023-04-07T12:37:14;100796.84;;;16.17;33.70
30875;BME280;17581;43.222;27.924;2023-04-07T12:39:39;100788.31;;;15.94;34.42
30875;BME280;17581;43.222;27.924;2023-04-07T12:42:05;100787.78;;;15.73;34.46
30875;BME280;17581;43.222;27.924;2023-04-07T12:44:31;100804.41;;;15.06;37.04
30875;BME280;17581;43.222;27.924;2023-04-07T12:46:57;100806.22;;;14.78;38.69
30875;BME280;17581;43.222;27.924;2023-04-07T12:49:22;100814.56;;;14.48;39.73
30875;BME280;17581;43.222;27.924;2023-04-07T12:51:48;100819.84;;;14.40;39.83
30875;BME280;17581;43.222;27.924;2023-04-07T12:54:13;100814.16;;;14.43;40.71
30875;BME280;17581;43.222;27.924;2023-04-07T12:56:39;100821.97;;;14.46;41.04
30875;BME280;17581;43.222;27.924;2023-04-07T12:59:06;100820.81;;;14.29;39.95
30875;BME280;17581;43.222;27.924;2023-04-07T13:01:32;100815.44;;;13.91;39.40
30875;BME280;17581;43.222;27.924;2023-04-07T13:03:59;100822.94;;;13.68;40.43